createdAt,value
2019-01-18T00:00:29.325Z,73.63
2019-01-18T00:01:29.306Z,74.01
2019-01-18T00:02:29.328Z,73.82
2019-01-18T00:03:29.288Z,74.01
2019-01-18T00:04:30.685Z,73.92
2019-01-18T00:05:29.331Z,74.30
2019-01-18T00:06:29.325Z,74.49
2019-01-18T00:07:29.341Z,74.39
2019-01-18T00:08:29.382Z,74.58
2019-01-18T00:09:29.381Z,73.54
2019-01-18T00:10:29.405Z,73.92
2019-01-18T00:11:29.423Z,73.63
2019-01-18T00:12:29.610Z,74.20
2019-01-18T00:13:30.042Z,74.87
2019-01-18T00:14:29.303Z,75.53
2019-01-18T00:15:29.384Z,75.43
2019-01-18T00:16:29.399Z,75.91
2019-01-18T00:17:29.372Z,76.01
2019-01-18T00:18:29.405Z,75.91
2019-01-18T00:19:29.358Z,75.15
2019-01-18T00:20:29.399Z,75.05
2019-01-18T00:21:29.387Z,75.24
2019-01-18T00:22:29.368Z,76.01
2019-01-18T00:23:29.430Z,75.62
2019-01-18T00:24:29.374Z,75.34
2019-01-18T00:25:29.388Z,76.01
2019-01-18T00:26:29.408Z,76.10
2019-01-18T00:27:29.389Z,75.53
2019-01-18T00:28:29.422Z,75.91
2019-01-18T00:29:29.763Z,76.76
2019-01-18T00:30:29.448Z,76.67
2019-01-18T00:31:29.432Z,76.67
2019-01-18T00:32:29.490Z,76.76
2019-01-18T00:33:29.397Z,76.48
2019-01-18T00:34:29.421Z,76.57
2019-01-18T00:35:29.392Z,76.39
2019-01-18T00:36:29.410Z,76.95
2019-01-18T00:37:29.509Z,76.95
2019-01-18T00:38:29.469Z,77.24
2019-01-18T00:39:29.429Z,76.76
2019-01-18T00:40:29.438Z,76.86
2019-01-18T00:41:29.437Z,76.86
2019-01-18T00:42:29.424Z,77.05
2019-01-18T00:43:29.472Z,77.52
2019-01-18T00:44:29.485Z,76.95
2019-01-18T00:45:29.450Z,76.86
2019-01-18T00:46:29.458Z,77.43
2019-01-18T00:47:29.497Z,77.33
2019-01-18T00:48:29.449Z,76.95
2019-01-18T00:49:29.455Z,77.05
2019-01-18T00:50:29.462Z,77.24
2019-01-18T00:51:29.477Z,76.95
2019-01-18T00:52:29.465Z,76.95
2019-01-18T00:53:29.502Z,77.05
2019-01-18T00:54:29.484Z,76.86
2019-01-18T00:55:29.640Z,77.14
2019-01-18T00:56:29.499Z,77.05
2019-01-18T00:57:29.502Z,76.86
2019-01-18T00:58:29.513Z,76.95
2019-01-18T00:59:29.538Z,76.67
2019-01-18T01:00:30.243Z,76.86
2019-01-18T01:01:29.518Z,76.76
2019-01-18T01:02:29.525Z,76.67
2019-01-18T01:03:29.492Z,77.24
2019-01-18T01:04:29.541Z,77.05
2019-01-18T01:05:29.518Z,76.76
2019-01-18T01:06:29.496Z,76.57
2019-01-18T01:07:29.493Z,76.67
2019-01-18T01:08:29.502Z,76.10
2019-01-18T01:09:29.507Z,76.01
2019-01-18T01:10:29.542Z,76.01
2019-01-18T01:11:29.524Z,76.29
2019-01-18T01:12:29.583Z,76.48
2019-01-18T01:13:29.519Z,76.29
2019-01-18T01:14:29.585Z,75.91
2019-01-18T01:15:29.559Z,75.72
2019-01-18T01:16:29.529Z,75.72
2019-01-18T01:17:29.549Z,75.05
2019-01-18T01:18:29.521Z,75.24
2019-01-18T01:19:29.640Z,75.43
2019-01-18T01:20:29.619Z,75.43
2019-01-18T01:21:29.626Z,76.20
2019-01-18T01:22:29.679Z,75.81
2019-01-18T01:23:29.644Z,75.81
2019-01-18T01:24:29.595Z,76.57
2019-01-18T01:25:29.571Z,76.29
2019-01-18T01:26:29.647Z,75.91
2019-01-18T01:27:29.580Z,75.91
2019-01-18T01:28:29.575Z,75.40
2019-01-18T01:29:29.593Z,76.34
2019-01-18T01:30:29.589Z,76.63
2019-01-18T01:31:29.598Z,76.44
2019-01-18T01:32:29.581Z,77.16
2019-01-18T01:33:29.625Z,78.11
2019-01-18T01:34:29.597Z,77.83
2019-01-18T01:35:29.595Z,79.44
2019-01-18T01:36:29.603Z,79.44
2019-01-18T01:37:29.636Z,80.10
2019-01-18T01:38:29.624Z,80.48
2019-01-18T01:39:29.661Z,79.44
2019-01-18T01:40:29.643Z,81.01
2019-01-18T01:41:29.641Z,81.20
2019-01-18T01:42:29.681Z,81.67
2019-01-18T01:43:29.655Z,81.38
2019-01-18T01:44:29.596Z,81.57
2019-01-18T01:45:29.629Z,82.43
2019-01-18T01:46:29.631Z,81.76
2019-01-18T01:47:29.675Z,81.57
2019-01-18T01:48:29.638Z,81.48
2019-01-18T01:49:29.613Z,81.67
2019-01-18T01:50:29.634Z,80.96
2019-01-18T01:51:29.605Z,81.72
2019-01-18T01:52:29.660Z,82.01
2019-01-18T01:53:29.666Z,82.67
2019-01-18T01:54:29.746Z,81.72
2019-01-18T01:55:29.656Z,81.63
2019-01-18T01:56:29.633Z,81.63
2019-01-18T01:57:29.684Z,81.72
2019-01-18T01:58:29.996Z,81.82
2019-01-18T01:59:29.650Z,82.67
2019-01-18T02:00:29.692Z,81.63
2019-01-18T02:01:29.708Z,81.15
2019-01-18T02:02:29.652Z,81.34
2019-01-18T02:03:29.676Z,81.34
2019-01-18T02:04:29.659Z,80.02
2019-01-18T02:05:29.668Z,81.06
2019-01-18T02:06:29.680Z,80.77
2019-01-18T02:07:29.662Z,80.21
2019-01-18T02:08:29.705Z,80.21
2019-01-18T02:09:29.663Z,80.02
2019-01-18T02:10:29.671Z,80.87
2019-01-18T02:11:29.722Z,81.06
2019-01-18T02:12:29.685Z,80.96
2019-01-18T02:13:29.685Z,80.49
2019-01-18T02:14:29.715Z,79.26
2019-01-18T02:15:29.728Z,79.83
2019-01-18T02:16:29.683Z,79.26
2019-01-18T02:17:29.670Z,80.02
2019-01-18T02:18:29.698Z,79.45
2019-01-18T02:19:29.678Z,79.45
2019-01-18T02:20:29.699Z,79.17
2019-01-18T02:21:29.695Z,79.45
2019-01-18T02:22:29.744Z,79.13
2019-01-18T02:23:29.710Z,78.85
2019-01-18T02:24:29.716Z,79.55
2019-01-18T02:25:29.727Z,80.49
2019-01-18T02:26:29.689Z,79.93
2019-01-18T02:27:29.715Z,79.93
2019-01-18T02:28:29.768Z,79.83
2019-01-18T02:29:29.769Z,80.40
2019-01-18T02:30:29.745Z,80.02
2019-01-18T02:31:29.737Z,80.21
2019-01-18T02:32:29.749Z,80.21
2019-01-18T02:33:29.788Z,80.49
2019-01-18T02:34:29.722Z,79.64
2019-01-18T02:35:29.812Z,79.74
2019-01-18T02:36:29.802Z,79.83
2019-01-18T02:37:29.723Z,80.77
2019-01-18T02:38:29.733Z,80.68
2019-01-18T02:39:29.773Z,80.40
2019-01-18T02:40:29.760Z,80.49
2019-01-18T02:41:29.731Z,80.21
2019-01-18T02:42:29.766Z,80.02
2019-01-18T02:43:29.712Z,80.40
2019-01-18T02:44:29.763Z,79.55
2019-01-18T02:45:29.761Z,79.93
2019-01-18T02:46:29.739Z,79.83
2019-01-18T02:47:29.727Z,79.83
2019-01-18T02:48:29.788Z,80.02
2019-01-18T02:49:29.725Z,79.36
2019-01-18T02:50:29.736Z,79.26
2019-01-18T02:51:29.827Z,77.99
2019-01-18T02:52:29.773Z,78.65
2019-01-18T02:53:29.809Z,78.37
2019-01-18T02:54:29.765Z,79.22
2019-01-18T02:55:29.752Z,79.50
2019-01-18T02:56:29.758Z,79.22
2019-01-18T02:57:29.799Z,80.45
2019-01-18T02:58:30.095Z,79.69
2019-01-18T02:59:29.767Z,78.94
2019-01-18T03:00:29.823Z,78.94
2019-01-18T03:01:29.752Z,79.13
2019-01-18T03:02:29.782Z,79.88
2019-01-18T03:03:29.778Z,79.98
2019-01-18T03:04:29.788Z,79.79
2019-01-18T03:05:29.810Z,80.64
2019-01-18T03:06:29.800Z,80.74
2019-01-18T03:07:29.807Z,81.68
2019-01-18T03:08:29.829Z,81.77
2019-01-18T03:09:29.859Z,80.83
2019-01-18T03:10:29.798Z,81.40
2019-01-18T03:11:29.888Z,81.77
2019-01-18T03:12:29.795Z,81.21
2019-01-18T03:13:29.800Z,80.93
2019-01-18T03:14:29.953Z,81.21
2019-01-18T03:15:29.776Z,80.83
2019-01-18T03:16:29.783Z,81.30
2019-01-18T03:17:29.823Z,80.64
2019-01-18T03:18:29.802Z,80.17
2019-01-18T03:19:29.859Z,80.17
2019-01-18T03:20:29.830Z,80.36
2019-01-18T03:21:29.840Z,79.79
2019-01-18T03:22:29.860Z,79.60
2019-01-18T03:23:29.803Z,80.74
2019-01-18T03:24:29.789Z,80.07
2019-01-18T03:25:29.820Z,80.55
2019-01-18T03:26:29.802Z,80.36
2019-01-18T03:27:29.881Z,80.45
2019-01-18T03:28:29.849Z,80.45
2019-01-18T03:29:29.950Z,80.45
2019-01-18T03:30:29.860Z,80.45
2019-01-18T03:31:29.848Z,80.17
2019-01-18T03:32:29.837Z,80.74
2019-01-18T03:33:29.823Z,80.45
2019-01-18T03:34:29.808Z,81.21
2019-01-18T03:35:29.869Z,81.12
2019-01-18T03:36:29.819Z,80.74
2019-01-18T03:37:29.842Z,81.21
2019-01-18T03:38:29.860Z,81.30
2019-01-18T03:39:29.834Z,80.74
2019-01-18T03:40:29.844Z,81.02
2019-01-18T03:41:29.843Z,80.93
2019-01-18T03:42:29.843Z,81.12
2019-01-18T03:43:29.912Z,81.02
2019-01-18T03:44:29.859Z,80.93
2019-01-18T03:45:29.856Z,81.30
2019-01-18T03:46:29.814Z,80.83
2019-01-18T03:47:29.850Z,80.26
2019-01-18T03:48:29.857Z,80.17
2019-01-18T03:49:29.889Z,80.36
2019-01-18T03:50:29.892Z,79.60
2019-01-18T03:51:29.883Z,79.41
2019-01-18T03:52:29.884Z,79.88
2019-01-18T03:53:29.887Z,79.88
2019-01-18T03:54:29.866Z,79.41
2019-01-18T03:55:29.850Z,79.32
2019-01-18T03:56:29.930Z,79.22
2019-01-18T03:57:29.850Z,78.94
2019-01-18T03:58:29.879Z,79.13
2019-01-18T03:59:29.857Z,79.41
2019-01-18T04:00:29.866Z,79.13
2019-01-18T04:01:29.849Z,78.98
2019-01-18T04:02:29.936Z,79.07
2019-01-18T04:03:29.959Z,79.07
2019-01-18T04:04:29.864Z,79.36
2019-01-18T04:05:29.858Z,78.50
2019-01-18T04:06:29.871Z,78.41
2019-01-18T04:07:29.903Z,78.22
2019-01-18T04:08:29.964Z,78.22
2019-01-18T04:09:29.919Z,78.41
2019-01-18T04:10:29.904Z,78.13
2019-01-18T04:11:29.918Z,77.94
2019-01-18T04:12:29.923Z,77.84
2019-01-18T04:13:29.897Z,78.50
2019-01-18T04:14:29.923Z,78.41
2019-01-18T04:15:30.037Z,78.22
2019-01-18T04:16:29.892Z,77.94
2019-01-18T04:17:29.940Z,77.94
2019-01-18T04:18:29.914Z,77.94
2019-01-18T04:19:29.917Z,77.27
2019-01-18T04:20:29.945Z,77.56
2019-01-18T04:21:29.947Z,77.08
2019-01-18T04:22:29.909Z,77.56
2019-01-18T04:23:30.022Z,77.46
2019-01-18T04:24:29.915Z,77.08
2019-01-18T04:25:30.035Z,77.18
2019-01-18T04:26:29.962Z,77.08
2019-01-18T04:27:29.902Z,76.89
2019-01-18T04:28:29.929Z,76.89
2019-01-18T04:29:29.901Z,76.42
2019-01-18T04:30:33.641Z,76.42
2019-01-18T04:31:29.945Z,76.42
2019-01-18T04:32:29.905Z,76.42
2019-01-18T04:33:30.025Z,76.80
2019-01-18T04:34:29.919Z,76.42
2019-01-18T04:35:29.958Z,75.95
2019-01-18T04:36:30.083Z,76.23
2019-01-18T04:37:29.931Z,75.85
2019-01-18T04:38:29.921Z,76.27
2019-01-18T04:39:29.924Z,76.17
2019-01-18T04:40:29.919Z,75.89
2019-01-18T04:41:30.107Z,75.28
2019-01-18T04:42:29.948Z,74.43
2019-01-18T04:43:29.966Z,74.43
2019-01-18T04:44:29.927Z,72.53
2019-01-18T04:45:29.921Z,72.92
2019-01-18T04:46:29.928Z,73.11
2019-01-18T04:47:30.020Z,73.77
2019-01-18T04:48:30.020Z,73.20
2019-01-18T04:49:29.980Z,72.16
2019-01-18T04:50:30.011Z,71.59
2019-01-18T04:51:29.942Z,71.12
2019-01-18T04:52:30.014Z,70.93
2019-01-18T04:53:30.112Z,70.45
2019-01-18T04:54:29.982Z,69.89
2019-01-18T04:55:29.987Z,68.90
2019-01-18T04:56:30.020Z,68.71
2019-01-18T04:57:30.045Z,69.00
2019-01-18T04:58:30.007Z,69.57
2019-01-18T04:59:30.010Z,69.32
2019-01-18T05:00:29.997Z,69.95
2019-01-18T05:01:29.970Z,68.71
2019-01-18T05:02:29.978Z,69.38
2019-01-18T05:03:30.006Z,69.95
2019-01-18T05:04:30.000Z,70.04
2019-01-18T05:05:30.002Z,70.14
2019-01-18T05:06:30.068Z,69.98
2019-01-18T05:07:30.018Z,69.89
2019-01-18T05:08:30.023Z,69.98
2019-01-18T05:09:30.006Z,70.04
2019-01-18T05:10:29.975Z,70.14
2019-01-18T05:11:30.006Z,70.14
2019-01-18T05:12:30.060Z,69.98
2019-01-18T05:13:30.009Z,70.04
2019-01-18T05:14:30.145Z,69.57
2019-01-18T05:15:30.065Z,69.57
2019-01-18T05:16:30.002Z,69.38
2019-01-18T05:17:29.985Z,70.04
2019-01-18T05:18:30.025Z,69.95
2019-01-18T05:19:30.006Z,70.04
2019-01-18T05:20:30.008Z,70.14
2019-01-18T05:21:30.052Z,70.04
2019-01-18T05:22:30.010Z,70.14
2019-01-18T05:23:30.183Z,69.95
2019-01-18T05:24:30.064Z,69.95
2019-01-18T05:25:30.049Z,69.85
2019-01-18T05:26:30.023Z,70.04
2019-01-18T05:27:30.011Z,70.32
2019-01-18T05:28:30.003Z,70.61
2019-01-18T05:29:30.056Z,71.08
2019-01-18T05:30:30.068Z,70.79
2019-01-18T05:31:30.002Z,70.04
2019-01-18T05:32:30.042Z,70.14
2019-01-18T05:33:30.036Z,69.28
2019-01-18T05:34:30.030Z,68.81
2019-01-18T05:35:30.040Z,68.05
2019-01-18T05:36:30.041Z,67.77
2019-01-18T05:37:30.017Z,67.96
2019-01-18T05:38:30.078Z,67.77
2019-01-18T05:39:30.023Z,68.15
2019-01-18T05:40:30.033Z,68.52
2019-01-18T05:41:30.041Z,68.24
2019-01-18T05:42:30.048Z,68.15
2019-01-18T05:43:30.112Z,68.05
2019-01-18T05:44:30.062Z,68.24
2019-01-18T05:45:30.038Z,68.05
2019-01-18T05:46:30.034Z,67.77
2019-01-18T05:47:30.040Z,67.86
2019-01-18T05:48:30.043Z,67.96
2019-01-18T05:49:30.054Z,67.96
2019-01-18T05:50:30.118Z,68.08
2019-01-18T05:51:30.051Z,67.30
2019-01-18T05:52:30.053Z,67.11
2019-01-18T05:53:30.071Z,67.58
2019-01-18T05:54:30.102Z,67.30
2019-01-18T05:55:30.065Z,66.92
2019-01-18T05:56:30.076Z,67.58
2019-01-18T05:57:30.079Z,67.86
2019-01-18T05:58:31.224Z,67.11
2019-01-18T05:59:30.134Z,66.82
2019-01-18T06:00:30.107Z,67.01
2019-01-18T06:01:30.181Z,67.01
2019-01-18T06:02:30.073Z,67.58
2019-01-18T06:03:30.084Z,67.30
2019-01-18T06:04:30.083Z,67.86
2019-01-18T06:05:30.091Z,67.30
2019-01-18T06:06:30.103Z,67.49
2019-01-18T06:07:30.077Z,67.30
2019-01-18T06:08:30.079Z,67.20
2019-01-18T06:09:30.074Z,67.68
2019-01-18T06:10:30.098Z,67.49
2019-01-18T06:11:30.101Z,67.30
2019-01-18T06:12:30.071Z,67.11
2019-01-18T06:13:30.102Z,67.30
2019-01-18T06:14:30.117Z,67.77
2019-01-18T06:15:30.113Z,67.77
2019-01-18T06:16:30.128Z,67.86
2019-01-18T06:17:30.138Z,67.86
2019-01-18T06:18:30.182Z,68.37
2019-01-18T06:19:30.090Z,68.84
2019-01-18T06:20:30.131Z,68.94
2019-01-18T06:21:30.108Z,68.37
2019-01-18T06:22:30.241Z,68.56
2019-01-18T06:23:30.130Z,68.08
2019-01-18T06:24:30.104Z,67.61
2019-01-18T06:25:30.185Z,67.20
2019-01-18T06:26:30.103Z,67.77
2019-01-18T06:27:30.149Z,67.14
2019-01-18T06:28:30.157Z,66.92
2019-01-18T06:29:30.116Z,66.82
2019-01-18T06:30:30.121Z,67.39
2019-01-18T06:31:30.127Z,67.20
2019-01-18T06:32:30.155Z,67.24
2019-01-18T06:33:30.150Z,67.99
2019-01-18T06:34:30.110Z,67.33
2019-01-18T06:35:30.126Z,67.43
2019-01-18T06:36:30.119Z,67.61
2019-01-18T06:37:30.191Z,67.43
2019-01-18T06:38:30.157Z,67.52
2019-01-18T06:39:30.138Z,67.14
2019-01-18T06:40:30.138Z,66.86
2019-01-18T06:41:30.143Z,67.05
2019-01-18T06:42:30.160Z,66.47
2019-01-18T06:43:30.169Z,66.95
2019-01-18T06:44:30.145Z,66.95
2019-01-18T06:45:30.141Z,66.95
2019-01-18T06:46:30.128Z,66.86
2019-01-18T06:47:30.137Z,66.95
2019-01-18T06:48:30.165Z,66.57
2019-01-18T06:49:30.181Z,66.95
2019-01-18T06:50:30.185Z,66.76
2019-01-18T06:51:30.973Z,67.11
2019-01-18T06:52:30.438Z,66.82
2019-01-18T06:53:30.159Z,66.73
2019-01-18T06:54:30.287Z,66.92
2019-01-18T06:55:30.157Z,67.11
2019-01-18T06:56:30.203Z,66.25
2019-01-18T06:57:30.164Z,66.73
2019-01-18T06:58:30.160Z,66.53
2019-01-18T06:59:30.176Z,67.01
2019-01-18T07:00:30.175Z,66.92
2019-01-18T07:01:30.196Z,67.20
2019-01-18T07:02:30.189Z,67.86
2019-01-18T07:03:30.179Z,67.77
2019-01-18T07:04:30.183Z,67.20
2019-01-18T07:05:30.165Z,67.01
2019-01-18T07:06:30.202Z,67.11
2019-01-18T07:07:30.192Z,66.82
2019-01-18T07:08:30.186Z,66.92
2019-01-18T07:09:30.192Z,67.01
2019-01-18T07:10:30.191Z,66.82
2019-01-18T07:11:31.606Z,66.73
2019-01-18T07:12:30.338Z,67.30
2019-01-18T07:13:30.939Z,67.11
2019-01-18T07:14:30.458Z,67.01
2019-01-18T07:15:30.193Z,66.82
2019-01-18T07:16:30.494Z,67.30
2019-01-18T07:17:30.298Z,67.30
2019-01-18T07:18:30.248Z,67.01
2019-01-18T07:19:30.313Z,67.74
2019-01-18T07:20:30.258Z,67.39
2019-01-18T07:21:30.716Z,67.68
2019-01-18T07:22:30.216Z,67.20
2019-01-18T07:23:30.343Z,67.58
2019-01-18T07:24:31.224Z,68.15
2019-01-18T07:25:30.367Z,67.86
2019-01-18T07:26:30.782Z,68.15
2019-01-18T07:27:30.190Z,67.86
2019-01-18T07:28:30.384Z,67.77
2019-01-18T07:29:30.232Z,67.96
2019-01-18T07:30:30.334Z,67.58
2019-01-18T07:31:30.319Z,67.77
2019-01-18T07:32:30.312Z,68.05
2019-01-18T07:33:30.225Z,67.96
2019-01-18T07:34:30.200Z,67.39
2019-01-18T07:35:30.579Z,67.96
2019-01-18T07:36:30.228Z,67.68
2019-01-18T07:37:30.208Z,67.96
2019-01-18T07:38:30.219Z,67.86
2019-01-18T07:39:30.219Z,67.20
2019-01-18T07:40:30.219Z,67.30
2019-01-18T07:41:30.269Z,67.96
2019-01-18T07:42:30.242Z,67.58
2019-01-18T07:43:30.212Z,67.96
2019-01-18T07:44:30.228Z,67.49
2019-01-18T07:45:30.245Z,67.30
2019-01-18T07:46:30.240Z,67.01
2019-01-18T07:47:30.240Z,67.49
2019-01-18T07:48:30.283Z,67.20
2019-01-18T07:49:30.220Z,67.30
2019-01-18T07:50:30.229Z,67.58
2019-01-18T07:51:30.229Z,68.05
2019-01-18T07:52:30.260Z,67.96
2019-01-18T07:53:30.236Z,67.68
2019-01-18T07:54:30.259Z,67.20
2019-01-18T07:55:30.247Z,67.39
2019-01-18T07:56:30.317Z,67.86
2019-01-18T07:57:30.246Z,67.01
2019-01-18T07:58:30.246Z,67.58
2019-01-18T07:59:30.259Z,67.58
2019-01-18T08:00:30.247Z,67.96
2019-01-18T08:01:30.253Z,67.58
2019-01-18T08:02:30.325Z,67.20
2019-01-18T08:03:30.253Z,67.49
2019-01-18T08:04:30.272Z,67.39
2019-01-18T08:05:30.269Z,67.20
2019-01-18T08:06:30.288Z,66.92
2019-01-18T08:07:30.301Z,67.39
2019-01-18T08:08:30.281Z,67.30
2019-01-18T08:09:30.286Z,67.49
2019-01-18T08:10:30.263Z,67.77
2019-01-18T08:11:30.277Z,67.49
2019-01-18T08:12:30.282Z,68.05
2019-01-18T08:13:30.250Z,67.11
2019-01-18T08:14:30.254Z,67.77
2019-01-18T08:15:30.311Z,67.86
2019-01-18T08:16:30.308Z,67.68
2019-01-18T08:17:30.277Z,67.77
2019-01-18T08:18:30.271Z,67.30
2019-01-18T08:19:30.270Z,67.30
2019-01-18T08:20:30.277Z,67.68
2019-01-18T08:21:30.262Z,67.11
2019-01-18T08:22:30.290Z,67.39
2019-01-18T08:23:30.328Z,67.68
2019-01-18T08:24:30.276Z,67.30
2019-01-18T08:25:30.286Z,67.49
2019-01-18T08:26:30.296Z,67.49
2019-01-18T08:27:30.281Z,67.49
2019-01-18T08:28:30.292Z,67.77
2019-01-18T08:29:30.305Z,67.49
2019-01-18T08:30:30.306Z,68.24
2019-01-18T08:31:30.299Z,68.15
2019-01-18T08:32:30.283Z,68.05
2019-01-18T08:33:30.292Z,68.15
2019-01-18T08:34:30.309Z,68.33
2019-01-18T08:35:30.289Z,67.96
2019-01-18T08:36:30.313Z,67.86
2019-01-18T08:37:30.311Z,68.24
2019-01-18T08:38:30.308Z,67.96
2019-01-18T08:39:30.360Z,68.05
2019-01-18T08:40:30.292Z,67.96
2019-01-18T08:41:30.314Z,68.33
2019-01-18T08:42:30.297Z,68.62
2019-01-18T08:43:30.293Z,68.71
2019-01-18T08:44:30.333Z,68.71
2019-01-18T08:45:30.340Z,69.47
2019-01-18T08:46:30.308Z,69.57
2019-01-18T08:47:30.320Z,69.09
2019-01-18T08:48:30.327Z,70.04
2019-01-18T08:49:30.341Z,69.47
2019-01-18T08:50:30.353Z,70.14
2019-01-18T08:51:30.335Z,69.85
2019-01-18T08:52:30.321Z,70.51
2019-01-18T08:53:30.305Z,70.14
2019-01-18T08:54:30.316Z,70.04
2019-01-18T08:55:30.361Z,70.32
2019-01-18T08:56:30.335Z,70.23
2019-01-18T08:57:30.326Z,70.32
2019-01-18T08:58:30.417Z,70.70
2019-01-18T08:59:30.334Z,70.89
2019-01-18T09:00:30.322Z,70.61
2019-01-18T09:01:35.715Z,70.79
2019-01-18T09:02:30.332Z,70.79
2019-01-18T09:03:30.335Z,71.27
2019-01-18T09:04:30.333Z,71.08
2019-01-18T09:05:30.377Z,71.27
2019-01-18T09:06:30.334Z,70.70
2019-01-18T09:07:30.370Z,71.27
2019-01-18T09:08:30.417Z,71.27
2019-01-18T09:09:30.331Z,70.89
2019-01-18T09:10:30.344Z,71.55
2019-01-18T09:11:30.330Z,71.55
2019-01-18T09:12:30.375Z,71.46
2019-01-18T09:13:30.363Z,71.55
2019-01-18T09:14:30.357Z,71.36
2019-01-18T09:15:30.353Z,71.55
2019-01-18T09:16:30.362Z,71.55
2019-01-18T09:17:30.349Z,71.46
2019-01-18T09:18:30.367Z,71.36
2019-01-18T09:19:30.363Z,71.55
2019-01-18T09:20:30.372Z,71.46
2019-01-18T09:21:30.426Z,71.27
2019-01-18T09:22:30.356Z,71.36
2019-01-18T09:23:30.420Z,71.08
2019-01-18T09:24:30.350Z,71.65
2019-01-18T09:25:30.382Z,71.36
2019-01-18T09:26:30.387Z,71.46
2019-01-18T09:27:30.354Z,71.93
2019-01-18T09:28:30.359Z,71.27
2019-01-18T09:29:30.395Z,71.46
2019-01-18T09:30:30.358Z,71.46
2019-01-18T09:31:30.413Z,71.36
2019-01-18T09:32:30.370Z,71.55
2019-01-18T09:33:30.381Z,70.79
2019-01-18T09:34:30.424Z,70.64
2019-01-18T09:35:30.418Z,71.02
2019-01-18T09:36:30.399Z,71.02
2019-01-18T09:37:30.380Z,70.83
2019-01-18T09:38:30.389Z,70.55
2019-01-18T09:39:30.397Z,71.02
2019-01-18T09:40:30.439Z,70.83
2019-01-18T09:41:30.407Z,70.93
2019-01-18T09:42:30.396Z,70.93
2019-01-18T09:43:30.407Z,71.02
2019-01-18T09:44:30.417Z,71.40
2019-01-18T09:45:30.417Z,71.78
2019-01-18T09:46:30.409Z,71.59
2019-01-18T09:47:30.479Z,71.59
2019-01-18T09:48:30.393Z,71.12
2019-01-18T09:49:30.415Z,70.93
2019-01-18T09:50:30.464Z,71.31
2019-01-18T09:51:30.408Z,71.59
2019-01-18T09:52:30.391Z,70.93
2019-01-18T09:53:30.400Z,71.97
2019-01-18T09:54:30.754Z,70.83
2019-01-18T09:55:30.407Z,71.12
2019-01-18T09:56:30.425Z,70.93
2019-01-18T09:57:30.410Z,70.45
2019-01-18T09:58:30.406Z,70.45
2019-01-18T09:59:30.417Z,70.07
2019-01-18T10:00:30.409Z,70.07
2019-01-18T10:01:30.463Z,69.98
2019-01-18T10:02:30.439Z,70.07
2019-01-18T10:03:30.480Z,69.41
2019-01-18T10:04:30.423Z,69.51
2019-01-18T10:05:30.418Z,69.32
2019-01-18T10:06:30.482Z,69.60
2019-01-18T10:07:30.459Z,69.22
2019-01-18T10:08:30.460Z,68.84
2019-01-18T10:09:30.430Z,68.84
2019-01-18T10:10:30.430Z,69.22
2019-01-18T10:11:30.443Z,69.41
2019-01-18T10:12:30.475Z,69.41
2019-01-18T10:13:31.909Z,69.60
2019-01-18T10:14:30.430Z,69.51
2019-01-18T10:15:30.434Z,69.70
2019-01-18T10:16:30.454Z,69.79
2019-01-18T10:17:30.462Z,68.37
2019-01-18T10:18:30.514Z,68.75
2019-01-18T10:19:30.459Z,68.65
2019-01-18T10:20:30.441Z,68.56
2019-01-18T10:21:30.456Z,68.65
2019-01-18T10:22:30.500Z,68.65
2019-01-18T10:23:30.457Z,68.75
2019-01-18T10:24:30.462Z,68.75
2019-01-18T10:25:30.472Z,68.75
2019-01-18T10:26:30.463Z,68.18
2019-01-18T10:27:30.490Z,67.99
2019-01-18T10:28:30.481Z,67.80
2019-01-18T10:29:30.464Z,68.37
2019-01-18T10:30:30.491Z,67.61
2019-01-18T10:31:30.459Z,68.18
2019-01-18T10:32:30.484Z,68.27
2019-01-18T10:33:30.529Z,67.83
2019-01-18T10:34:30.479Z,68.12
2019-01-18T10:35:30.482Z,67.99
2019-01-18T10:36:30.477Z,67.83
2019-01-18T10:37:30.481Z,68.12
2019-01-18T10:38:30.488Z,68.12
2019-01-18T10:39:30.505Z,68.02
2019-01-18T10:40:30.502Z,68.79
2019-01-18T10:41:30.479Z,68.98
2019-01-18T10:42:30.483Z,68.31
2019-01-18T10:43:30.522Z,68.69
2019-01-18T10:44:30.560Z,68.21
2019-01-18T10:45:30.504Z,68.12
2019-01-18T10:46:30.514Z,68.31
2019-01-18T10:47:30.502Z,67.65
2019-01-18T10:48:30.500Z,68.02
2019-01-18T10:49:30.514Z,67.83
2019-01-18T10:50:30.499Z,67.36
2019-01-18T10:51:30.542Z,67.55
2019-01-18T10:52:30.506Z,67.46
2019-01-18T10:53:30.528Z,68.02
2019-01-18T10:54:30.554Z,67.74
2019-01-18T10:55:30.522Z,68.12
2019-01-18T10:56:30.541Z,68.21
2019-01-18T10:57:30.547Z,68.69
2019-01-18T10:58:30.598Z,68.98
2019-01-18T10:59:30.545Z,68.98
2019-01-18T11:00:30.547Z,69.17
2019-01-18T11:01:30.515Z,69.26
2019-01-18T11:02:30.537Z,68.79
2019-01-18T11:03:30.570Z,68.02
2019-01-18T11:04:30.531Z,68.12
2019-01-18T11:05:30.537Z,67.74
2019-01-18T11:06:30.547Z,68.12
2019-01-18T11:07:30.559Z,68.12
2019-01-18T11:08:30.561Z,67.36
2019-01-18T11:09:30.583Z,66.60
2019-01-18T11:10:30.615Z,66.70
2019-01-18T11:11:30.557Z,67.55
2019-01-18T11:12:30.554Z,67.18
2019-01-18T11:13:30.564Z,67.74
2019-01-18T11:14:30.558Z,67.83
2019-01-18T11:15:30.562Z,67.65
2019-01-18T11:16:30.558Z,68.21
2019-01-18T11:17:30.561Z,67.55
2019-01-18T11:18:30.589Z,67.08
2019-01-18T11:19:30.582Z,66.60
2019-01-18T11:20:30.595Z,65.84
2019-01-18T11:21:30.595Z,66.13
2019-01-18T11:22:30.568Z,65.66
2019-01-18T11:23:30.603Z,65.84
2019-01-18T11:24:30.586Z,65.28
2019-01-18T11:25:31.853Z,65.47
2019-01-18T11:26:30.582Z,65.75
2019-01-18T11:27:30.586Z,65.56
2019-01-18T11:28:30.643Z,65.75
2019-01-18T11:29:30.597Z,65.97
2019-01-18T11:30:30.656Z,65.66
2019-01-18T11:31:31.522Z,66.22
2019-01-18T11:32:30.601Z,66.22
2019-01-18T11:33:30.586Z,66.60
2019-01-18T11:34:30.610Z,66.13
2019-01-18T11:35:30.659Z,66.70
2019-01-18T11:36:30.588Z,67.08
2019-01-18T11:37:30.604Z,67.65
2019-01-18T11:38:30.605Z,67.18
2019-01-18T11:39:30.605Z,67.08
2019-01-18T11:40:30.632Z,67.08
2019-01-18T11:41:30.642Z,66.99
2019-01-18T11:42:30.618Z,66.32
2019-01-18T11:43:30.607Z,65.84
2019-01-18T11:44:30.624Z,65.75
2019-01-18T11:45:30.639Z,65.00
2019-01-18T11:46:30.648Z,63.95
2019-01-18T11:47:30.631Z,64.42
2019-01-18T11:48:30.630Z,65.19
2019-01-18T11:49:30.634Z,64.90
2019-01-18T11:50:30.623Z,65.09
2019-01-18T11:51:30.636Z,64.90
2019-01-18T11:52:30.653Z,65.37
2019-01-18T11:53:30.638Z,65.75
2019-01-18T11:54:30.637Z,65.84
2019-01-18T11:55:30.656Z,66.41
2019-01-18T11:56:30.658Z,66.07
2019-01-18T11:57:30.637Z,66.13
2019-01-18T11:58:30.691Z,67.21
2019-01-18T11:59:30.656Z,65.97
2019-01-18T12:00:30.647Z,65.50
2019-01-18T12:01:30.678Z,65.88
2019-01-18T12:02:30.657Z,64.65
2019-01-18T12:03:30.677Z,64.17
2019-01-18T12:04:30.656Z,64.27
2019-01-18T12:05:30.675Z,64.08
2019-01-18T12:06:30.702Z,65.03
2019-01-18T12:07:30.660Z,66.16
2019-01-18T12:08:30.675Z,65.97
2019-01-18T12:09:30.673Z,65.88
2019-01-18T12:10:30.715Z,65.59
2019-01-18T12:11:30.678Z,65.12
2019-01-18T12:12:30.731Z,64.84
2019-01-18T12:13:30.707Z,65.31
2019-01-18T12:14:30.674Z,64.17
2019-01-18T12:15:30.686Z,64.36
2019-01-18T12:16:30.681Z,64.36
2019-01-18T12:17:30.714Z,63.04
2019-01-18T12:18:30.705Z,62.47
2019-01-18T12:19:30.730Z,62.56
2019-01-18T12:20:30.683Z,63.13
2019-01-18T12:21:37.014Z,63.79
2019-01-18T12:22:30.722Z,64.36
2019-01-18T12:23:30.717Z,65.03
2019-01-18T12:24:30.770Z,64.74
2019-01-18T12:25:30.711Z,64.17
2019-01-18T12:26:30.699Z,64.36
2019-01-18T12:27:30.716Z,63.79
2019-01-18T12:28:30.722Z,63.70
2019-01-18T12:29:30.719Z,64.84
2019-01-18T12:30:30.742Z,64.55
2019-01-18T12:31:30.748Z,63.89
2019-01-18T12:32:30.737Z,64.36
2019-01-18T12:33:30.725Z,64.08
2019-01-18T12:34:30.721Z,63.60
2019-01-18T12:35:30.758Z,64.08
2019-01-18T12:36:30.782Z,63.89
2019-01-18T12:37:30.742Z,64.08
2019-01-18T12:38:30.800Z,64.84
2019-01-18T12:39:30.755Z,64.65
2019-01-18T12:40:30.754Z,64.27
2019-01-18T12:41:30.740Z,63.60
2019-01-18T12:42:30.770Z,64.46
2019-01-18T12:43:30.784Z,64.65
2019-01-18T12:44:30.753Z,64.27
2019-01-18T12:45:30.903Z,64.36
2019-01-18T12:46:30.747Z,64.27
2019-01-18T12:47:30.739Z,63.79
2019-01-18T12:48:30.759Z,64.23
2019-01-18T12:49:30.765Z,64.27
2019-01-18T12:50:30.806Z,63.60
2019-01-18T12:51:30.782Z,63.32
2019-01-18T12:52:30.772Z,62.94